Time;durP1;ratioP1;P1;durP2;ratioP2;P2;SDS_P1;SDS_P2;PMS_P1;PMS_P2;Temp;Humidity;BMP_temperature;BMP_pressure;BME280_temperature;BME280_humidity;BME280_pressure;Samples;Min_cycle;Max_cycle;Signal;HPM_P1;HPM_P2
2021/12/02 00:01:21;;;;;;;7.28;1.00;;;;;;;3.98;83.82;99500.69;5020224;28;20025;-74
2021/12/02 00:03:47;;;;;;;2.97;1.17;;;;;;;3.98;83.45;99504.09;5020769;28;20052;-74
2021/12/02 00:06:15;;;;;;;7.43;0.73;;;;;;;3.93;84.01;99506.34;5025095;28;20033;-74
2021/12/02 00:08:42;;;;;;;8.88;1.67;;;;;;;3.89;83.20;99499.75;5022357;28;20474;-74
2021/12/02 00:11:08;;;;;;;4.10;0.60;;;;;;;3.90;82.67;99514.44;5022757;28;20437;-74
2021/12/02 00:21:31;;;;;;;1.83;1.05;;;;;;;3.79;82.05;99525.00;5021071;28;20038;-74
2021/12/02 00:24:03;;;;;;;0.60;0.60;;;;;;;3.75;81.33;99513.25;5022622;28;20048;-74
2021/12/02 00:26:31;;;;;;;4.13;0.75;;;;;;;3.69;81.07;99525.84;5024677;28;20167;-74
2021/12/02 00:28:58;;;;;;;3.40;0.40;;;;;;;3.64;81.28;99528.06;5023015;28;20081;-74
2021/12/02 00:31:33;;;;;;;0.70;0.55;;;;;;;3.57;82.23;99520.91;5023816;28;20352;-74
2021/12/02 00:34:01;;;;;;;4.22;0.93;;;;;;;3.56;81.65;99538.34;5026119;28;20021;-74
2021/12/02 00:36:30;;;;;;;1.98;0.85;;;;;;;3.55;81.08;99534.13;5019844;28;20040;-74
2021/12/02 00:38:57;;;;;;;2.22;0.47;;;;;;;3.46;81.55;99527.09;5022586;28;20044;-74
2021/12/02 00:41:25;;;;;;;1.83;0.88;;;;;;;3.48;81.33;99541.66;5024266;28;20034;-74
2021/12/02 00:43:52;;;;;;;1.20;0.70;;;;;;;3.43;79.68;99533.41;5022853;28;20047;-74
2021/12/02 00:46:20;;;;;;;5.50;1.05;;;;;;;3.49;79.18;99530.25;5014919;28;20042;-74
2021/12/02 00:48:47;;;;;;;4.00;0.90;;;;;;;3.54;78.77;99544.69;5044490;28;20022;-74
2021/12/02 00:51:14;;;;;;;1.60;0.57;;;;;;;3.57;79.68;99545.25;5019182;28;20038;-74
2021/12/02 00:53:45;;;;;;;1.40;0.75;;;;;;;3.62;78.80;99548.25;5015123;28;20064;-74
2021/12/02 00:56:16;;;;;;;4.13;0.45;;;;;;;3.68;80.38;99542.47;5025685;28;20445;-74
2021/12/02 00:58:46;;;;;;;5.07;0.85;;;;;;;3.71;79.72;99542.19;5015603;28;20037;-74
2021/12/02 01:01:13;;;;;;;4.25;0.57;;;;;;;3.63;81.15;99521.19;5017852;28;20034;-74
2021/12/02 01:03:39;;;;;;;7.40;0.90;;;;;;;3.79;81.24;99535.44;5008646;28;20061;-74
2021/12/02 01:06:06;;;;;;;3.10;0.80;;;;;;;3.78;81.43;99545.06;5020873;28;20056;-74
2021/12/02 01:08:34;;;;;;;4.28;0.90;;;;;;;3.76;82.65;99544.38;5021771;28;20026;-74
2021/12/02 01:11:00;;;;;;;3.28;0.88;;;;;;;3.64;82.11;99535.06;5018928;28;20120;-74
2021/12/02 01:13:26;;;;;;;4.20;0.93;;;;;;;3.62;82.21;99537.81;5014329;28;20253;-74
2021/12/02 01:15:52;;;;;;;2.67;1.25;;;;;;;3.66;82.49;99554.84;5020018;28;20556;-74
2021/12/02 01:18:19;;;;;;;1.02;0.47;;;;;;;3.59;83.42;99558.94;5022833;28;20037;-74
2021/12/02 01:20:47;;;;;;;2.60;0.65;;;;;;;3.62;83.86;99550.03;5020266;28;20401;-74
2021/12/02 01:23:15;;;;;;;8.25;0.93;;;;;;;3.63;83.39;99562.94;5022687;28;20033;-74
2021/12/02 01:25:42;;;;;;;6.57;1.02;;;;;;;3.64;82.73;99546.31;5024409;28;20026;-74
2021/12/02 01:28:08;;;;;;;1.45;0.32;;;;;;;3.48;81.61;99522.56;5021789;28;20049;-74
2021/12/02 01:30:33;;;;;;;2.92;0.70;;;;;;;3.69;81.67;99559.78;5018275;28;20039;-74
2021/12/02 01:33:02;;;;;;;5.28;0.85;;;;;;;3.71;81.45;99559.66;5023520;28;20033;-74
2021/12/02 01:35:30;;;;;;;2.35;0.40;;;;;;;3.73;80.19;99549.09;5021115;28;20374;-74
2021/12/02 01:37:56;;;;;;;2.17;0.57;;;;;;;3.76;81.37;99561.84;5023690;28;20116;-74
2021/12/02 01:40:21;;;;;;;2.03;0.70;;;;;;;3.79;81.89;99558.94;5020054;28;20485;-73
2021/12/02 01:42:51;;;;;;;3.10;1.08;;;;;;;3.71;83.05;99557.84;5005423;28;20119;-73
2021/12/02 01:45:22;;;;;;;3.35;0.45;;;;;;;3.69;84.63;99559.78;5019886;28;20026;-73
2021/12/02 01:47:51;;;;;;;1.08;0.40;;;;;;;3.64;83.78;99567.19;5022300;28;20056;-74
2021/12/02 01:50:20;;;;;;;2.80;0.52;;;;;;;3.64;84.49;99572.41;5019511;28;20057;-74
2021/12/02 01:52:54;;;;;;;2.53;0.63;;;;;;;3.58;84.73;99567.75;5022893;28;20034;-74
2021/12/02 01:55:20;;;;;;;3.67;0.50;;;;;;;3.45;85.51;99556.75;5031354;28;20474;-74
2021/12/02 01:58:01;;;;;;;0.52;0.22;;;;;;;3.41;85.58;99555.38;5005254;28;20045;-74
2021/12/02 02:00:33;;;;;;;1.65;0.85;;;;;;;3.62;86.34;99579.56;5019084;28;20099;-74
2021/12/02 02:03:02;;;;;;;1.60;0.28;;;;;;;3.67;86.47;99593.00;5021202;28;20374;-74
2021/12/02 02:05:30;;;;;;;2.55;0.77;;;;;;;3.61;86.71;99588.31;5021504;28;20046;-74
2021/12/02 02:08:05;;;;;;;2.83;0.30;;;;;;;3.65;87.48;99609.75;5021246;28;20049;-74
2021/12/02 02:10:34;;;;;;;0.20;0.20;;;;;;;3.59;86.68;99600.69;5035719;28;20048;-74
2021/12/02 02:13:06;;;;;;;0.70;0.30;;;;;;;3.67;87.47;99615.69;5012983;28;20189;-74
2021/12/02 02:15:31;;;;;;;3.35;0.80;;;;;;;3.60;88.27;99607.56;5024461;28;20028;-75
2021/12/02 02:18:20;;;;;;;0.95;0.40;;;;;;;3.66;89.64;99627.91;5020136;28;20037;-74
2021/12/02 02:23:25;;;;;;;1.00;0.20;;;;;;;3.51;91.85;99621.44;5017666;28;20038;-74
2021/12/02 02:25:50;;;;;;;1.23;0.40;;;;;;;3.56;92.14;99621.84;5024791;28;20496;-75
2021/12/02 02:28:16;;;;;;;2.97;0.40;;;;;;;3.49;91.95;99616.34;5013861;28;20029;-74
2021/12/02 02:30:42;;;;;;;0.90;0.50;;;;;;;3.42;92.60;99619.59;5020861;28;20034;-74
2021/12/02 02:33:13;;;;;;;0.32;0.32;;;;;;;3.45;92.83;99619.34;5032460;28;20030;-74
2021/12/02 02:35:40;;;;;;;3.88;0.20;;;;;;;3.45;92.64;99625.38;5025546;28;20529;-74
2021/12/02 02:38:05;;;;;;;2.50;0.50;;;;;;;3.36;92.75;99625.38;5014830;28;20061;-74
2021/12/02 02:40:32;;;;;;;0.50;0.22;;;;;;;3.27;93.44;99606.13;5018650;28;20560;-73
2021/12/02 02:43:05;;;;;;;2.97;0.40;;;;;;;3.36;94.28;99625.38;5020404;28;20037;-73
2021/12/02 02:45:31;;;;;;;0.73;0.40;;;;;;;3.11;94.60;99590.97;5023003;28;20025;-73
2021/12/02 02:47:56;;;;;;;3.30;0.20;;;;;;;3.15;94.90;99592.38;5017488;28;20034;-75
2021/12/02 02:50:22;;;;;;;3.40;0.50;;;;;;;3.19;95.23;99614.63;5014232;28;20471;-74
2021/12/02 02:52:47;;;;;;;0.70;0.40;;;;;;;3.23;95.37;99615.19;5006125;28;20033;-74
2021/12/02 02:55:23;;;;;;;0.10;0.10;;;;;;;3.21;95.40;99617.91;5025712;28;20029;-74
2021/12/02 02:58:27;;;;;;;0.60;0.22;;;;;;;2.98;95.02;99582.56;5019861;28;20393;-74
2021/12/02 03:00:53;;;;;;;3.75;0.50;;;;;;;3.05;94.38;99602.78;5024265;28;20045;-74
2021/12/02 03:03:30;;;;;;;1.67;0.68;;;;;;;3.04;94.68;99595.09;5020800;28;20029;-74
2021/12/02 03:06:25;;;;;;;1.90;0.30;;;;;;;2.91;93.67;99584.06;5023244;28;20083;-74
2021/12/02 03:08:59;;;;;;;2.47;0.38;;;;;;;2.88;93.83;99595.59;5019243;28;20025;-74
2021/12/02 03:11:27;;;;;;;0.90;0.40;;;;;;;2.77;93.67;99593.88;5025334;28;20026;-74
2021/12/02 03:13:55;;;;;;;0.75;0.52;;;;;;;2.88;94.74;99606.81;5004920;28;20210;-75
2021/12/02 03:19:05;;;;;;;0.60;0.50;;;;;;;2.93;94.54;99629.06;5029711;28;20118;-74
2021/12/02 03:21:31;;;;;;;0.77;0.35;;;;;;;3.02;94.85;99636.09;5017501;28;20066;-74
2021/12/02 03:24:01;;;;;;;3.95;0.90;;;;;;;2.92;94.75;99627.41;5022230;28;20257;-74
2021/12/02 03:26:28;;;;;;;4.45;0.55;;;;;;;2.94;94.26;99635.91;5020572;28;20029;-75
2021/12/02 03:28:54;;;;;;;2.13;0.40;;;;;;;2.87;93.44;99631.25;5022077;28;20029;-75
2021/12/02 03:31:22;;;;;;;1.25;0.38;;;;;;;2.68;93.85;99605.91;5023208;28;20032;-75
2021/12/02 03:33:48;;;;;;;2.15;0.30;;;;;;;2.91;94.60;99636.19;5026644;28;20408;-75
2021/12/02 03:36:16;;;;;;;2.70;0.73;;;;;;;2.87;93.63;99641.69;5018699;28;20033;-74
2021/12/02 03:38:42;;;;;;;2.00;0.40;;;;;;;2.91;93.68;99646.63;5027200;28;20036;-74
2021/12/02 03:41:08;;;;;;;1.83;0.50;;;;;;;2.76;94.14;99623.50;5020788;28;20029;-75
2021/12/02 03:43:38;;;;;;;2.97;0.50;;;;;;;2.77;94.22;99614.72;5020179;28;20414;-74
2021/12/02 03:46:04;;;;;;;1.43;0.50;;;;;;;2.73;94.99;99605.53;5026477;28;20025;-74
2021/12/02 03:48:30;;;;;;;1.85;0.50;;;;;;;2.91;94.80;99644.81;5021668;28;20040;-74
2021/12/02 03:50:55;;;;;;;2.08;0.20;;;;;;;2.93;95.16;99645.53;5025270;28;20037;-74
2021/12/02 03:53:21;;;;;;;1.92;0.38;;;;;;;2.95;94.38;99654.03;5023405;28;20037;-74
2021/12/02 03:55:46;;;;;;;1.30;0.32;;;;;;;2.92;94.98;99663.88;5018340;28;20030;-74
2021/12/02 03:58:11;;;;;;;0.50;0.13;;;;;;;2.53;93.66;99666.31;5018728;28;20260;-75
2021/12/02 04:00:37;;;;;;;0.98;0.30;;;;;;;2.46;94.19;99661.59;5025794;28;20124;-75
2021/12/02 04:03:02;;;;;;;0.63;0.32;;;;;;;2.22;94.03;99622.78;5020046;28;20029;-74
2021/12/02 04:05:28;;;;;;;0.60;0.15;;;;;;;2.36;93.61;99652.88;5024172;28;20627;-74
2021/12/02 04:07:53;;;;;;;0.95;0.30;;;;;;;2.41;94.00;99665.50;5022370;28;20310;-74
2021/12/02 04:10:20;;;;;;;1.95;0.20;;;;;;;2.42;94.33;99678.41;5015770;28;20029;-74
2021/12/02 04:12:55;;;;;;;0.43;0.10;;;;;;;2.42;94.76;99681.03;5025856;28;20631;-74
2021/12/02 04:15:28;;;;;;;0.22;0.22;;;;;;;2.19;94.09;99643.84;5023034;28;20116;-75
2021/12/02 04:17:53;;;;;;;0.20;0.15;;;;;;;2.36;93.58;99663.28;5021091;28;20406;-75
2021/12/02 04:20:22;;;;;;;0.40;0.20;;;;;;;1.99;93.61;99640.28;5009717;28;20032;-75
2021/12/02 04:22:49;;;;;;;0.10;0.10;;;;;;;1.75;94.35;99631.84;5023439;28;20086;-75
2021/12/02 04:25:16;;;;;;;1.45;0.40;;;;;;;1.62;95.69;99625.03;5019583;28;20092;-74
2021/12/02 04:27:42;;;;;;;2.50;0.47;;;;;;;1.53;97.38;99627.53;5022782;28;21082;-75
2021/12/02 04:30:11;;;;;;;1.42;0.30;;;;;;;1.47;97.40;99630.63;5021546;28;20025;-74
2021/12/02 04:32:37;;;;;;;1.08;0.28;;;;;;;1.47;97.77;99641.03;5023413;28;20064;-75
2021/12/02 04:35:04;;;;;;;0.73;0.50;;;;;;;1.50;97.81;99643.38;5018627;28;20084;-75
2021/12/02 04:37:29;;;;;;;0.10;0.10;;;;;;;1.45;98.09;99646.34;5022899;28;20056;-75
2021/12/02 04:39:55;;;;;;;0.20;0.20;;;;;;;1.45;99.01;99661.94;5017455;28;20441;-74
2021/12/02 04:42:21;;;;;;;1.40;0.30;;;;;;;1.48;98.32;99656.50;5025655;28;20120;-74
2021/12/02 04:44:46;;;;;;;0.10;0.10;;;;;;;1.40;99.13;99651.09;5017781;28;20065;-74
2021/12/02 04:47:12;;;;;;;1.30;0.20;;;;;;;1.22;99.48;99635.97;5018285;28;20152;-76
2021/12/02 04:49:37;;;;;;;0.10;0.10;;;;;;;1.22;99.93;99648.16;5023469;28;20080;-74
2021/12/02 04:52:03;;;;;;;0.90;0.30;;;;;;;0.98;100.00;99627.47;5016163;28;20045;-74
2021/12/02 04:54:28;;;;;;;0.45;0.20;;;;;;;1.03;100.00;99643.56;5007954;28;20022;-74
2021/12/02 04:56:54;;;;;;;0.90;0.40;;;;;;;0.78;100.00;99639.41;5023568;28;20276;-76
2021/12/02 04:59:20;;;;;;;1.75;0.20;;;;;;;0.85;100.00;99657.94;5014324;28;20112;-74
2021/12/02 05:01:45;;;;;;;0.75;0.30;;;;;;;0.69;100.00;99664.28;5023322;28;20397;-75
2021/12/02 05:04:10;;;;;;;0.20;0.20;;;;;;;0.72;100.00;99664.06;5016735;28;20037;-74
2021/12/02 05:06:36;;;;;;;0.30;0.20;;;;;;;0.82;100.00;99669.38;5022261;28;20148;-74
2021/12/02 05:09:02;;;;;;;0.85;0.30;;;;;;;0.78;100.00;99667.97;5015165;28;20034;-74
2021/12/02 05:11:28;;;;;;;0.10;0.10;;;;;;;0.80;100.00;99666.91;5019000;28;20371;-75
2021/12/02 05:13:53;;;;;;;2.28;0.28;;;;;;;0.81;100.00;99673.75;5016626;28;20040;-74
2021/12/02 05:16:18;;;;;;;0.30;0.22;;;;;;;0.63;100.00;99671.72;5018022;28;20034;-75
2021/12/02 05:18:44;;;;;;;1.48;0.60;;;;;;;0.81;100.00;99683.34;5006735;28;20030;-76
2021/12/02 05:21:09;;;;;;;2.33;0.25;;;;;;;0.59;100.00;99671.13;5016015;28;20043;-75
2021/12/02 05:23:35;;;;;;;0.20;0.20;;;;;;;0.94;100.00;99694.44;5018576;28;20030;-75
2021/12/02 05:26:01;;;;;;;0.65;0.20;;;;;;;1.12;100.00;99706.97;5012880;28;20044;-75
2021/12/02 05:28:26;;;;;;;0.30;0.20;;;;;;;1.19;100.00;99706.38;5022270;28;20577;-75
2021/12/02 05:30:51;;;;;;;0.63;0.43;;;;;;;1.23;100.00;99696.59;5017688;28;20030;-75
2021/12/02 05:33:17;;;;;;;0.35;0.30;;;;;;;1.11;100.00;99698.38;5019504;28;20026;-75
2021/12/02 05:35:44;;;;;;;0.30;0.30;;;;;;;1.13;100.00;99698.22;5018249;28;20025;-75
2021/12/02 05:38:09;;;;;;;0.38;0.22;;;;;;;1.26;100.00;99703.31;5019774;28;20038;-75
2021/12/02 05:40:35;;;;;;;0.45;0.45;;;;;;;1.25;100.00;99679.09;5017864;28;20038;-76
2021/12/02 05:43:00;;;;;;;2.15;0.32;;;;;;;1.29;100.00;99682.28;5024044;28;20100;-75
2021/12/02 05:45:26;;;;;;;1.67;0.40;;;;;;;1.41;100.00;99699.53;5010247;28;20062;-75
2021/12/02 05:47:51;;;;;;;1.15;0.55;;;;;;;1.45;100.00;99693.13;5019382;28;20037;-75
2021/12/02 05:50:17;;;;;;;2.55;0.98;;;;;;;1.37;100.00;99696.34;5016611;28;20034;-75
2021/12/02 05:52:42;;;;;;;0.63;0.45;;;;;;;1.28;100.00;99699.63;5021195;28;20053;-75
2021/12/02 05:55:08;;;;;;;1.20;0.32;;;;;;;1.12;100.00;99691.38;5020319;28;20477;-75
2021/12/02 05:57:33;;;;;;;2.25;0.47;;;;;;;1.22;100.00;99711.34;5019619;28;20030;-75
2021/12/02 05:59:59;;;;;;;0.47;0.32;;;;;;;1.25;100.00;99712.06;5018566;28;21233;-75
2021/12/02 06:02:24;;;;;;;0.63;0.30;;;;;;;1.30;100.00;99699.53;5015450;28;20390;-75
2021/12/02 06:04:52;;;;;;;0.55;0.30;;;;;;;1.47;100.00;99712.03;5015729;28;20046;-76
2021/12/02 06:07:18;;;;;;;1.80;0.65;;;;;;;1.51;100.00;99713.47;5013418;28;20946;-75
2021/12/02 06:09:45;;;;;;;2.22;0.52;;;;;;;1.46;100.00;99715.59;5011855;28;20075;-75
2021/12/02 06:12:10;;;;;;;1.20;0.43;;;;;;;1.36;100.00;99694.69;5028294;28;20490;-75
2021/12/02 06:14:36;;;;;;;0.43;0.40;;;;;;;1.48;100.00;99720.66;5006267;28;20076;-75
2021/12/02 06:17:01;;;;;;;3.40;0.50;;;;;;;1.47;100.00;99721.63;5018359;28;20059;-75
2021/12/02 06:19:27;;;;;;;1.13;0.55;;;;;;;1.30;100.00;99694.34;5017333;28;20080;-75
2021/12/02 06:21:52;;;;;;;1.17;0.40;;;;;;;1.50;100.00;99709.19;5014157;28;20030;-75
2021/12/02 06:24:19;;;;;;;2.70;0.40;;;;;;;1.40;100.00;99709.09;5014954;28;20033;-75
2021/12/02 06:26:45;;;;;;;0.73;0.73;;;;;;;1.43;100.00;99718.44;5017813;28;20036;-75
2021/12/02 06:29:10;;;;;;;0.98;0.60;;;;;;;1.31;100.00;99727.19;5019242;28;20490;-75
2021/12/02 06:31:36;;;;;;;2.38;0.65;;;;;;;1.31;100.00;99725.41;5017524;28;20030;-75
2021/12/02 06:34:02;;;;;;;3.80;1.20;;;;;;;1.39;100.00;99732.59;5017116;28;20444;-75
2021/12/02 06:36:27;;;;;;;5.18;2.00;;;;;;;1.31;100.00;99719.41;5016812;28;20172;-74
2021/12/02 06:38:53;;;;;;;4.90;1.13;;;;;;;1.39;100.00;99735.22;5014041;28;20172;-75
2021/12/02 06:41:18;;;;;;;5.78;0.77;;;;;;;1.40;100.00;99750.69;5022876;28;20037;-75
2021/12/02 06:43:45;;;;;;;1.45;0.35;;;;;;;1.21;100.00;99719.25;5015640;28;20438;-75
2021/12/02 06:46:11;;;;;;;0.60;0.50;;;;;;;1.36;100.00;99743.25;5012037;28;20472;-76
2021/12/02 06:48:36;;;;;;;2.45;1.20;;;;;;;1.22;100.00;99718.34;5023977;28;20099;-75
2021/12/02 06:51:02;;;;;;;1.50;1.17;;;;;;;1.40;100.00;99757.69;5009698;28;20039;-75
2021/12/02 06:53:27;;;;;;;2.78;2.40;;;;;;;1.42;100.00;99761.00;5017397;28;20092;-75
2021/12/02 06:55:52;;;;;;;3.83;2.30;;;;;;;1.45;100.00;99763.34;5014807;28;20026;-74
2021/12/02 06:58:18;;;;;;;3.38;1.75;;;;;;;1.44;100.00;99769.50;5014690;28;20576;-75
2021/12/02 07:00:43;;;;;;;4.45;2.00;;;;;;;1.49;100.00;99772.56;5018811;28;20040;-76
2021/12/02 07:03:08;;;;;;;2.85;2.45;;;;;;;1.39;100.00;99761.22;5019087;28;20068;-74
2021/12/02 07:05:34;;;;;;;3.53;0.80;;;;;;;1.39;100.00;99764.66;5018528;28;20033;-75
2021/12/02 07:08:01;;;;;;;2.42;1.73;;;;;;;1.41;100.00;99774.91;5025377;28;20073;-75
2021/12/02 07:10:28;;;;;;;3.88;2.35;;;;;;;1.41;100.00;99790.50;5022672;28;20475;-75
2021/12/02 07:12:58;;;;;;;1.48;1.30;;;;;;;1.37;100.00;99789.09;5023238;28;20033;-76
2021/12/02 07:15:32;;;;;;;2.85;1.10;;;;;;;1.18;100.00;99777.50;5018840;28;20084;-75
2021/12/02 07:18:00;;;;;;;2.67;0.93;;;;;;;1.03;100.00;99771.69;5020871;28;20037;-74
2021/12/02 07:20:35;;;;;;;3.63;0.80;;;;;;;0.88;100.00;99777.22;5020405;28;20022;-74
2021/12/02 07:23:01;;;;;;;0.75;0.50;;;;;;;0.79;100.00;99789.94;5023059;28;20033;-75
2021/12/02 07:25:27;;;;;;;0.70;0.47;;;;;;;0.65;100.00;99794.47;5022972;28;20030;-74
2021/12/02 07:27:53;;;;;;;1.05;0.50;;;;;;;0.33;100.00;99767.34;5023443;28;20104;-74
2021/12/02 07:30:19;;;;;;;1.65;0.43;;;;;;;0.41;100.00;99797.91;5022732;28;20432;-74
2021/12/02 07:32:50;;;;;;;0.88;0.60;;;;;;;0.47;100.00;99809.63;5026241;28;20033;-74
2021/12/02 07:35:16;;;;;;;3.25;0.80;;;;;;;0.46;100.00;99808.81;5022066;28;20021;-75
2021/12/02 07:37:45;;;;;;;2.50;0.68;;;;;;;0.49;100.00;99818.13;5018411;28;20456;-75
2021/12/02 07:40:12;;;;;;;2.63;0.70;;;;;;;0.55;100.00;99828.09;5021431;28;20029;-75
2021/12/02 07:42:37;;;;;;;1.33;0.88;;;;;;;0.47;100.00;99801.84;5022823;28;20053;-75
2021/12/02 07:45:07;;;;;;;2.00;0.80;;;;;;;0.32;100.00;99796.81;5027849;28;20120;-75
2021/12/02 07:47:34;;;;;;;2.05;0.80;;;;;;;0.46;100.00;99831.31;5032353;28;20120;-75
2021/12/02 07:50:00;;;;;;;1.27;0.60;;;;;;;0.44;100.00;99830.63;5029780;28;20401;-76
2021/12/02 07:52:25;;;;;;;2.30;1.17;;;;;;;0.44;100.00;99825.44;5025709;28;20074;-74
2021/12/02 07:54:55;;;;;;;1.77;1.42;;;;;;;0.63;100.00;99848.28;5028076;28;20029;-74
2021/12/02 07:57:21;;;;;;;5.55;1.98;;;;;;;0.69;100.00;99859.06;5020104;28;20417;-74
2021/12/02 07:59:51;;;;;;;1.85;1.05;;;;;;;0.82;100.00;99865.03;5026667;28;20466;-74
2021/12/02 08:02:17;;;;;;;1.45;0.60;;;;;;;0.76;100.00;99855.09;5017259;28;20049;-74
2021/12/02 08:04:43;;;;;;;1.60;0.80;;;;;;;0.87;100.00;99859.50;5024091;28;20028;-74
2021/12/02 08:07:08;;;;;;;1.05;0.95;;;;;;;0.98;100.00;99859.56;5023373;28;20054;-74
2021/12/02 08:09:34;;;;;;;3.05;0.68;;;;;;;1.05;100.00;99857.34;5020977;28;20030;-74
2021/12/02 08:12:00;;;;;;;2.45;0.98;;;;;;;1.15;100.00;99852.25;5024340;28;20045;-74
2021/12/02 08:14:26;;;;;;;1.02;0.65;;;;;;;1.39;100.00;99876.44;5024149;28;20136;-74
2021/12/02 08:16:52;;;;;;;0.95;0.47;;;;;;;1.55;100.00;99872.69;5019339;28;20037;-74
2021/12/02 08:19:18;;;;;;;2.40;0.50;;;;;;;1.68;100.00;99867.38;5024634;28;20040;-74
2021/12/02 08:21:43;;;;;;;0.90;0.52;;;;;;;2.20;100.00;99886.75;5019875;28;20026;-74
2021/12/02 08:24:09;;;;;;;2.08;0.55;;;;;;;2.65;100.00;99892.72;5027736;28;20178;-74
2021/12/02 08:26:34;;;;;;;1.65;0.45;;;;;;;3.02;100.00;99909.78;5040145;28;20055;-74
2021/12/02 08:29:01;;;;;;;0.63;0.40;;;;;;;3.14;100.00;99916.63;5019451;28;20398;-74
2021/12/02 08:31:26;;;;;;;1.20;0.30;;;;;;;3.18;100.00;99899.78;5025179;28;20029;-74
2021/12/02 08:33:53;;;;;;;0.93;0.50;;;;;;;3.25;99.44;99915.75;5020748;28;20021;-74
2021/12/02 08:36:22;;;;;;;0.60;0.38;;;;;;;3.19;97.64;99927.50;5021517;28;20036;-74
2021/12/02 08:38:48;;;;;;;2.85;0.43;;;;;;;3.22;96.80;99931.63;5020774;28;20075;-74
2021/12/02 08:41:18;;;;;;;0.38;0.30;;;;;;;3.38;97.29;99936.44;5023842;28;20077;-75
2021/12/02 08:43:43;;;;;;;0.47;0.40;;;;;;;3.37;97.26;99950.41;5020726;28;20399;-74
2021/12/02 08:46:09;;;;;;;0.98;0.60;;;;;;;3.39;96.17;99961.56;5019343;28;20064;-75
2021/12/02 08:48:34;;;;;;;1.48;0.50;;;;;;;3.29;96.25;99969.31;5020216;28;20032;-74
2021/12/02 08:51:00;;;;;;;0.73;0.40;;;;;;;3.18;94.54;99977.16;5014738;28;20044;-74
2021/12/02 08:53:25;;;;;;;0.63;0.30;;;;;;;3.19;95.51;99977.03;5009872;28;20065;-74
2021/12/02 08:55:50;;;;;;;1.40;0.50;;;;;;;3.25;95.14;99976.56;5020522;28;20110;-74
2021/12/02 08:58:16;;;;;;;1.17;0.50;;;;;;;3.32;95.90;99979.50;5004103;28;20489;-74
2021/12/02 09:00:43;;;;;;;0.82;0.40;;;;;;;3.32;96.27;99973.44;5022004;28;20045;-74
2021/12/02 09:03:13;;;;;;;1.83;0.77;;;;;;;3.28;95.72;99978.91;5020159;28;20529;-74
2021/12/02 09:05:39;;;;;;;0.52;0.30;;;;;;;3.40;95.75;99976.28;5016763;28;20037;-74
2021/12/02 09:08:05;;;;;;;0.43;0.30;;;;;;;3.47;96.69;99964.38;5020927;28;20410;-74
2021/12/02 09:10:31;;;;;;;0.82;0.40;;;;;;;3.81;97.90;99990.28;5019884;28;20041;-74
2021/12/02 09:12:56;;;;;;;1.30;0.50;;;;;;;4.07;98.37;99995.94;5028293;28;20040;-74
2021/12/02 09:15:22;;;;;;;6.20;0.65;;;;;;;4.18;96.92;100008.09;5022870;28;20032;-74
2021/12/02 09:17:47;;;;;;;0.45;0.25;;;;;;;4.06;95.24;100005.56;5016399;28;20131;-74
2021/12/02 09:20:15;;;;;;;3.63;0.75;;;;;;;4.08;94.37;100008.88;5023819;28;20075;-74
2021/12/02 09:22:42;;;;;;;1.83;0.50;;;;;;;4.00;94.38;100011.28;5016292;28;20047;-74
2021/12/02 09:25:08;;;;;;;1.30;0.40;;;;;;;3.90;93.46;100026.91;5020814;28;20426;-74
2021/12/02 09:27:34;;;;;;;0.30;0.20;;;;;;;3.75;93.90;100035.19;5026193;28;20041;-75
2021/12/02 09:30:00;;;;;;;0.20;0.20;;;;;;;3.46;93.74;100026.16;5018430;28;20030;-74
2021/12/02 09:32:27;;;;;;;1.38;0.40;;;;;;;3.37;93.74;100059.97;5022456;28;20032;-74
2021/12/02 09:34:52;;;;;;;0.35;0.30;;;;;;;3.24;93.93;100067.94;5023855;28;20028;-74
2021/12/02 09:37:18;;;;;;;0.20;0.20;;;;;;;2.98;94.16;100077.81;5016381;28;21139;-76
2021/12/02 09:39:43;;;;;;;1.10;0.38;;;;;;;2.45;94.09;100058.38;5015854;28;20072;-74
2021/12/02 09:42:11;;;;;;;0.85;0.30;;;;;;;2.34;93.71;100092.22;5019566;28;20054;-74
2021/12/02 09:44:38;;;;;;;0.10;0.10;;;;;;;2.02;93.97;100087.66;5016206;28;20044;-74
2021/12/02 09:47:05;;;;;;;2.40;0.40;;;;;;;2.00;95.21;100099.97;5012456;28;20021;-75
2021/12/02 09:49:31;;;;;;;0.40;0.20;;;;;;;1.79;95.03;100085.94;5016620;28;20033;-76
2021/12/02 09:52:02;;;;;;;0.65;0.30;;;;;;;1.78;94.83;100085.09;5019828;28;20065;-76
2021/12/02 09:54:37;;;;;;;0.10;0.10;;;;;;;1.77;95.42;100082.63;5018096;28;20029;-76
2021/12/02 09:57:05;;;;;;;8.57;4.10;;;;;;;1.76;95.84;100091.34;5017532;28;20144;-77
2021/12/02 09:59:46;;;;;;;67.90;26.88;;;;;;;1.65;96.40;100066.09;5022435;28;20033;-77
2021/12/02 10:02:15;;;;;;;22.77;7.28;;;;;;;1.69;96.19;100084.94;5010961;28;20411;-76
2021/12/02 10:07:24;;;;;;;4.20;2.08;;;;;;;1.32;96.59;100067.59;5027649;28;20061;-76
2021/12/02 10:10:16;;;;;;;8.15;3.08;;;;;;;1.31;98.30;100075.53;5033750;28;20033;-76
2021/12/02 10:13:05;;;;;;;31.50;12.82;;;;;;;1.56;99.31;100074.59;5028562;28;20029;-76
2021/12/02 10:15:31;;;;;;;6.55;3.55;;;;;;;1.66;98.55;100070.38;5022573;28;20025;-76
2021/12/02 10:18:09;;;;;;;5.25;2.50;;;;;;;1.89;98.73;100066.09;5027606;28;20040;-74
2021/12/02 10:20:38;;;;;;;5.72;2.03;;;;;;;2.45;98.98;100084.44;5038265;28;20440;-75
2021/12/02 10:23:15;;;;;;;4.85;2.53;;;;;;;6.19;100.00;100076.81;5028436;28;20042;-75
2021/12/02 10:25:48;;;;;;;6.57;2.20;;;;;;;8.90;93.77;100082.94;5023365;28;20059;-74
2021/12/02 10:28:15;;;;;;;1.45;0.60;;;;;;;9.91;76.63;100100.47;5022247;28;20123;-75
2021/12/02 10:30:43;;;;;;;5.03;0.77;;;;;;;10.04;72.36;100107.91;5025074;28;20472;-75
2021/12/02 10:33:10;;;;;;;0.73;0.40;;;;;;;9.05;71.89;100097.13;5030314;28;20021;-74
2021/12/02 10:35:45;;;;;;;0.80;0.30;;;;;;;7.65;72.69;100118.16;5028839;28;20026;-74
2021/12/02 10:38:32;;;;;;;1.70;0.43;;;;;;;6.65;75.52;100134.66;5026325;28;20017;-74
2021/12/02 10:41:12;;;;;;;0.47;0.30;;;;;;;5.82;78.58;100129.03;5027211;28;20308;-74
2021/12/02 10:44:20;;;;;;;1.08;0.10;;;;;;;4.75;82.50;100155.69;5033002;28;20609;-74
2021/12/02 10:46:53;;;;;;;0.28;0.28;;;;;;;4.27;85.20;100169.28;5014789;28;20060;-74
2021/12/02 10:49:19;;;;;;;0.50;0.20;;;;;;;3.89;86.53;100178.44;5018292;28;20139;-75
2021/12/02 10:51:51;;;;;;;0.63;0.28;;;;;;;3.59;88.41;100182.53;5019014;28;20041;-74
2021/12/02 10:54:28;;;;;;;5.78;0.43;;;;;;;3.49;89.18;100189.44;5023176;28;20026;-74
2021/12/02 10:56:58;;;;;;;0.10;0.10;;;;;;;3.34;90.13;100160.16;5037430;28;20034;-75
2021/12/02 10:59:35;;;;;;;0.60;0.40;;;;;;;3.16;90.24;100141.56;5016635;28;20033;-74
2021/12/02 11:02:05;;;;;;;0.52;0.30;;;;;;;2.91;91.08;100142.63;5017135;28;20029;-74
2021/12/02 11:04:41;;;;;;;0.50;0.32;;;;;;;3.03;92.68;100161.72;5017705;28;20034;-74
2021/12/02 11:07:12;;;;;;;0.50;0.35;;;;;;;3.04;93.03;100126.88;5021285;28;20042;-74
2021/12/02 11:09:39;;;;;;;3.45;0.43;;;;;;;3.23;91.86;100166.22;5020627;28;20116;-74
2021/12/02 11:12:08;;;;;;;0.20;0.20;;;;;;;3.18;90.99;100136.22;5020883;28;20403;-75
2021/12/02 11:15:01;;;;;;;0.30;0.30;;;;;;;3.28;90.88;100132.75;5022071;28;20030;-74
2021/12/02 11:17:32;;;;;;;0.47;0.38;;;;;;;3.57;90.25;100137.47;5017055;28;20057;-74
2021/12/02 11:20:00;;;;;;;0.73;0.30;;;;;;;3.88;91.07;100159.34;5019067;28;20156;-74
2021/12/02 11:22:28;;;;;;;0.35;0.30;;;;;;;4.03;90.47;100157.28;5030535;28;20465;-74
2021/12/02 11:24:54;;;;;;;0.10;0.10;;;;;;;4.09;90.73;100171.59;5018408;28;20459;-74
2021/12/02 11:27:24;;;;;;;0.63;0.20;;;;;;;4.16;90.72;100171.91;5021736;28;20070;-74
2021/12/02 11:29:58;;;;;;;0.30;0.20;;;;;;;4.27;91.23;100174.50;5016615;28;20056;-73
2021/12/02 11:32:36;;;;;;;1.50;0.55;;;;;;;4.23;88.89;100175.72;5013001;28;20056;-73
2021/12/02 11:35:15;;;;;;;0.68;0.40;;;;;;;4.11;86.76;100175.72;5020029;28;20074;-73
2021/12/02 11:37:44;;;;;;;0.28;0.10;;;;;;;3.96;87.71;100166.53;5018385;28;20029;-75
2021/12/02 11:40:23;;;;;;;0.57;0.20;;;;;;;4.10;88.13;100194.97;5025186;28;20033;-74
2021/12/02 11:42:50;;;;;;;1.00;0.40;;;;;;;3.94;87.56;100210.19;5019241;28;20048;-74
2021/12/02 11:45:18;;;;;;;1.27;0.40;;;;;;;3.75;87.85;100221.31;5019839;28;20052;-74
2021/12/02 11:47:44;;;;;;;0.82;0.22;;;;;;;3.64;88.54;100223.94;5013691;28;20026;-74
2021/12/02 11:50:12;;;;;;;0.45;0.40;;;;;;;3.47;88.71;100243.50;5018211;28;20401;-74
2021/12/02 11:52:39;;;;;;;0.63;0.32;;;;;;;3.14;90.66;100262.59;5024350;28;20056;-74
2021/12/02 11:55:08;;;;;;;0.55;0.40;;;;;;;2.24;93.50;100276.13;5016848;28;20144;-74
2021/12/02 11:57:34;;;;;;;0.68;0.30;;;;;;;2.00;94.62;100269.16;5017893;28;20576;-74